createdAt,value
2022-12-25T00:02:16.819Z,4.15
2022-12-25T00:04:47.083Z,7.22
2022-12-25T00:07:17.189Z,5.43
2022-12-25T00:09:47.406Z,6.18
2022-12-25T00:12:18.371Z,4.95
2022-12-25T00:14:48.665Z,6.25
2022-12-25T00:17:18.847Z,5.05
2022-12-25T00:19:48.995Z,5.75
2022-12-25T00:22:19.379Z,4.30
2022-12-25T00:24:50.064Z,4.30
2022-12-25T00:27:20.256Z,3.90
2022-12-25T00:29:50.369Z,4.93
2022-12-25T00:32:20.620Z,3.85
2022-12-25T00:34:50.794Z,6.00
2022-12-25T00:37:20.920Z,4.22
2022-12-25T00:39:50.985Z,5.07
2022-12-25T00:42:21.277Z,4.82
2022-12-25T00:44:51.554Z,4.60
2022-12-25T00:47:21.797Z,3.70
2022-12-25T00:49:52.117Z,5.15
2022-12-25T00:52:22.289Z,4.60
2022-12-25T00:54:52.517Z,5.75
2022-12-25T00:57:22.650Z,6.70
2022-12-25T00:59:52.801Z,5.97
2022-12-25T01:02:26.259Z,5.60
2022-12-25T01:04:57.544Z,4.85
2022-12-25T01:07:28.124Z,5.15
2022-12-25T01:10:17.045Z,4.70
2022-12-25T01:12:47.179Z,5.60
2022-12-25T01:15:18.048Z,5.20
2022-12-25T01:17:48.262Z,4.68
2022-12-25T01:20:19.451Z,4.60
2022-12-25T01:22:49.591Z,5.20
2022-12-25T01:25:20.161Z,6.22
2022-12-25T01:27:50.328Z,7.60
2022-12-25T01:30:20.409Z,8.18
2022-12-25T01:32:50.626Z,5.75
2022-12-25T01:35:20.880Z,5.28
2022-12-25T01:37:52.142Z,5.63
2022-12-25T01:40:22.450Z,4.97
2022-12-25T01:42:52.579Z,5.88
2022-12-25T01:45:40.702Z,6.28
2022-12-25T01:48:19.673Z,5.18
2022-12-25T01:50:59.071Z,8.00
2022-12-25T01:53:29.541Z,5.78
2022-12-25T01:56:04.643Z,5.47
2022-12-25T01:58:35.795Z,5.75
2022-12-25T02:01:05.973Z,5.05
2022-12-25T02:03:36.282Z,5.35
2022-12-25T02:06:07.695Z,5.07
2022-12-25T02:08:38.146Z,4.55
2022-12-25T02:11:29.353Z,4.93
2022-12-25T02:13:59.484Z,4.60
2022-12-25T02:16:35.693Z,4.43
2022-12-25T02:19:57.759Z,4.30
2022-12-25T02:23:05.381Z,5.25
2022-12-25T02:25:35.736Z,5.03
2022-12-25T02:28:45.963Z,4.57
2022-12-25T02:31:38.186Z,3.55
2022-12-25T02:34:32.158Z,4.20
2022-12-25T02:37:10.553Z,4.10
2022-12-25T02:39:59.810Z,3.67
2022-12-25T02:43:15.184Z,3.83
2022-12-25T02:46:10.841Z,3.77
2022-12-25T02:49:06.476Z,4.28
2022-12-25T02:51:58.614Z,9.10
2022-12-25T02:54:55.417Z,8.32
2022-12-25T03:00:56.648Z,3.60
2022-12-25T03:03:50.097Z,5.10
2022-12-25T03:06:40.740Z,6.70
2022-12-25T03:09:42.023Z,5.47
2022-12-25T03:12:43.528Z,4.97
2022-12-25T03:15:34.985Z,4.50
2022-12-25T03:18:10.170Z,4.30
2022-12-25T03:20:58.849Z,4.78
2022-12-25T03:23:52.535Z,4.50
2022-12-25T03:26:41.501Z,5.22
2022-12-25T03:29:32.201Z,4.75
2022-12-25T03:32:16.942Z,5.13
2022-12-25T03:35:24.445Z,4.95
2022-12-25T03:38:51.791Z,4.40
2022-12-25T03:42:07.605Z,5.28
2022-12-25T03:45:02.260Z,5.28
2022-12-25T03:48:01.069Z,4.90
2022-12-25T03:50:57.905Z,5.85
2022-12-25T03:54:09.272Z,5.85
2022-12-25T03:56:58.635Z,5.82
2022-12-25T03:59:47.741Z,3.88
2022-12-25T04:02:36.585Z,5.75
2022-12-25T04:05:26.057Z,4.75
2022-12-25T04:08:14.478Z,4.40
2022-12-25T04:11:03.200Z,4.53
2022-12-25T04:14:11.720Z,4.72
2022-12-25T04:17:00.329Z,4.00
2022-12-25T04:19:49.162Z,4.07
2022-12-25T04:22:38.156Z,4.68
2022-12-25T04:25:46.743Z,5.80
2022-12-25T04:28:35.118Z,6.50
2022-12-25T04:31:23.893Z,6.15
2022-12-25T04:34:12.794Z,5.43
2022-12-25T04:36:42.944Z,5.60
2022-12-25T04:39:13.257Z,5.35
2022-12-25T04:41:43.406Z,5.30
2022-12-25T04:44:13.719Z,6.38
2022-12-25T04:46:44.007Z,5.88
2022-12-25T04:49:14.201Z,5.95
2022-12-25T04:51:44.391Z,4.68
2022-12-25T04:54:14.656Z,4.85
2022-12-25T04:56:45.991Z,6.18
2022-12-25T04:59:16.380Z,5.50
2022-12-25T05:01:46.665Z,7.07
2022-12-25T05:04:16.780Z,5.25
2022-12-25T05:06:46.997Z,7.97
2022-12-25T05:09:17.124Z,5.35
2022-12-25T05:11:47.281Z,5.53
2022-12-25T05:14:17.430Z,5.68
2022-12-25T05:16:47.757Z,7.78
2022-12-25T05:19:17.927Z,6.85
2022-12-25T05:21:48.006Z,8.27
2022-12-25T05:24:18.152Z,7.30
2022-12-25T05:26:48.256Z,7.18
2022-12-25T05:29:18.406Z,6.75
2022-12-25T05:31:48.636Z,7.57
2022-12-25T05:34:18.889Z,7.53
2022-12-25T05:36:49.047Z,7.03
2022-12-25T05:39:19.415Z,7.10
2022-12-25T05:41:49.497Z,6.20
2022-12-25T05:44:19.647Z,6.93
2022-12-25T05:46:49.776Z,8.48
2022-12-25T05:49:20.150Z,6.20
2022-12-25T05:51:50.369Z,6.65
2022-12-25T05:54:20.980Z,7.45
2022-12-25T05:56:51.119Z,5.97
2022-12-25T05:59:21.259Z,6.68
2022-12-25T06:01:51.482Z,5.72
2022-12-25T06:04:21.765Z,7.75
2022-12-25T06:06:51.962Z,15.25
2022-12-25T06:09:22.067Z,11.45
2022-12-25T06:11:52.240Z,7.30
2022-12-25T06:14:22.465Z,6.07
2022-12-25T06:16:53.510Z,7.05
2022-12-25T06:19:24.124Z,6.78
2022-12-25T06:21:55.034Z,7.55
2022-12-25T06:24:25.293Z,6.93
2022-12-25T06:26:55.488Z,8.52
2022-12-25T06:29:25.745Z,7.10
2022-12-25T06:31:57.536Z,8.93
2022-12-25T06:34:27.999Z,13.20
2022-12-25T06:36:58.213Z,9.55
2022-12-25T06:39:28.418Z,8.68
2022-12-25T06:41:58.555Z,6.45
2022-12-25T06:44:28.736Z,6.30
2022-12-25T06:46:58.842Z,5.55
2022-12-25T06:49:29.058Z,6.68
2022-12-25T06:51:59.169Z,6.82
2022-12-25T06:54:29.401Z,5.82
2022-12-25T06:56:59.537Z,8.65
2022-12-25T06:59:30.100Z,9.50
2022-12-25T07:02:00.332Z,15.05
2022-12-25T07:04:42.082Z,9.43
2022-12-25T07:07:12.545Z,8.13
2022-12-25T07:09:42.863Z,6.22
2022-12-25T07:12:21.771Z,8.13
2022-12-25T07:14:54.797Z,8.20
2022-12-25T07:17:25.151Z,7.38
2022-12-25T07:19:56.772Z,10.73
2022-12-25T07:22:29.257Z,9.70
2022-12-25T07:24:59.513Z,7.07
2022-12-25T07:27:29.763Z,15.25
2022-12-25T07:29:59.894Z,8.95
2022-12-25T07:32:33.346Z,9.25
2022-12-25T07:35:03.639Z,8.93
2022-12-25T07:37:33.754Z,8.43
2022-12-25T07:40:04.181Z,7.90
2022-12-25T07:42:34.413Z,6.38
2022-12-25T07:45:05.304Z,6.28
2022-12-25T07:47:35.449Z,6.25
2022-12-25T07:50:06.416Z,8.98
2022-12-25T07:52:43.041Z,6.25
2022-12-25T07:57:43.811Z,4.95
2022-12-25T08:00:14.557Z,4.90
2022-12-25T08:02:45.107Z,6.28
2022-12-25T08:05:15.562Z,5.57
2022-12-25T08:07:45.711Z,7.75
2022-12-25T08:10:15.858Z,6.78
2022-12-25T08:12:46.026Z,21.98
2022-12-25T08:15:16.272Z,22.33
2022-12-25T08:17:46.434Z,17.20
2022-12-25T08:20:16.662Z,11.25
2022-12-25T08:22:46.880Z,9.25
2022-12-25T08:25:17.228Z,10.07
2022-12-25T08:27:47.403Z,9.07
2022-12-25T08:30:17.928Z,8.27
2022-12-25T08:32:48.329Z,9.68
2022-12-25T08:35:18.638Z,12.82
2022-12-25T08:37:48.816Z,10.48
2022-12-25T08:40:20.259Z,9.55
2022-12-25T08:42:50.454Z,9.23
2022-12-25T08:45:20.726Z,9.75
2022-12-25T08:47:55.656Z,9.50
2022-12-25T08:50:26.303Z,10.27
2022-12-25T08:52:56.479Z,13.60
2022-12-25T08:55:26.864Z,16.08
2022-12-25T08:57:57.046Z,15.13
2022-12-25T09:00:27.340Z,19.23
2022-12-25T09:02:57.568Z,19.92
2022-12-25T09:05:27.914Z,20.52
2022-12-25T09:07:58.193Z,16.38
2022-12-25T09:10:28.350Z,14.77
2022-12-25T09:12:58.466Z,16.35
2022-12-25T09:15:28.645Z,14.35
2022-12-25T09:17:58.764Z,18.05
2022-12-25T09:20:28.952Z,16.42
2022-12-25T09:22:59.289Z,18.13
2022-12-25T09:25:29.487Z,18.27
2022-12-25T09:27:59.634Z,19.65
2022-12-25T09:30:29.818Z,20.13
2022-12-25T09:33:00.096Z,12.95
2022-12-25T09:35:30.328Z,10.63
2022-12-25T09:38:00.506Z,10.45
2022-12-25T09:40:32.620Z,10.50
2022-12-25T09:43:04.157Z,13.07
2022-12-25T09:45:38.878Z,12.23
2022-12-25T09:48:15.040Z,13.02
2022-12-25T09:51:03.248Z,10.77
2022-12-25T09:53:44.504Z,12.63
2022-12-25T09:56:19.351Z,10.60
2022-12-25T09:58:49.442Z,8.65
2022-12-25T10:01:53.247Z,8.55
2022-12-25T10:04:41.752Z,9.95
2022-12-25T10:07:36.212Z,8.00
2022-12-25T10:10:32.822Z,11.38
2022-12-25T10:15:47.450Z,7.15
2022-12-25T10:18:44.823Z,9.23
2022-12-25T10:21:18.510Z,7.97
2022-12-25T10:24:04.848Z,9.50
2022-12-25T10:26:35.695Z,9.68
2022-12-25T10:29:17.365Z,7.40
2022-12-25T10:31:50.034Z,7.60
2022-12-25T10:34:20.613Z,8.48
2022-12-25T10:36:51.027Z,7.50
2022-12-25T10:39:24.446Z,8.02
2022-12-25T10:42:19.548Z,8.70
2022-12-25T10:44:57.987Z,7.93
2022-12-25T10:47:39.682Z,7.47
2022-12-25T10:50:17.534Z,6.63
2022-12-25T10:53:01.520Z,8.38
2022-12-25T10:55:33.377Z,8.40
2022-12-25T10:58:03.560Z,8.20
2022-12-25T11:00:34.064Z,8.57
2022-12-25T11:03:04.619Z,7.78
2022-12-25T11:05:36.349Z,8.27
2022-12-25T11:08:21.369Z,10.25
2022-12-25T11:10:57.764Z,11.52
2022-12-25T11:13:30.448Z,8.40
2022-12-25T11:16:06.106Z,7.95
2022-12-25T11:18:50.378Z,9.60
2022-12-25T11:21:24.870Z,7.10
2022-12-25T11:24:07.119Z,10.63
2022-12-25T11:26:48.489Z,9.52
2022-12-25T11:29:51.411Z,12.35
2022-12-25T11:32:29.671Z,9.02
2022-12-25T11:35:02.727Z,7.75
2022-12-25T11:37:46.377Z,9.00
2022-12-25T11:40:24.402Z,8.75
2022-12-25T11:43:18.645Z,8.13
2022-12-25T11:45:54.126Z,8.85
2022-12-25T11:48:34.425Z,9.85
2022-12-25T11:51:06.442Z,7.40
2022-12-25T11:53:41.352Z,9.82
2022-12-25T11:56:14.457Z,8.35
2022-12-25T11:58:49.523Z,12.43
2022-12-25T12:01:25.576Z,11.38
2022-12-25T12:03:56.515Z,8.32
2022-12-25T12:06:26.784Z,7.93
2022-12-25T12:09:09.418Z,8.20
2022-12-25T12:11:48.431Z,8.63
2022-12-25T12:14:45.957Z,9.55
2022-12-25T12:17:18.528Z,8.82
2022-12-25T12:19:48.855Z,8.32
2022-12-25T12:22:26.917Z,8.93
2022-12-25T12:25:04.805Z,7.78
2022-12-25T12:27:38.096Z,7.93
2022-12-25T12:30:24.507Z,11.20
2022-12-25T12:33:01.514Z,11.93
2022-12-25T12:38:17.450Z,8.77
2022-12-25T12:40:55.412Z,8.25
2022-12-25T12:43:43.359Z,10.43
2022-12-25T12:46:48.741Z,9.27
2022-12-25T12:49:35.123Z,8.35
2022-12-25T12:52:31.064Z,9.25
2022-12-25T12:55:13.271Z,10.40
2022-12-25T12:57:45.253Z,8.75
2022-12-25T13:00:19.881Z,8.52
2022-12-25T13:03:14.852Z,7.88
2022-12-25T13:05:55.750Z,6.32
2022-12-25T13:08:39.767Z,9.07
2022-12-25T13:11:21.613Z,8.25
2022-12-25T13:13:54.405Z,7.97
2022-12-25T13:16:27.553Z,8.15
2022-12-25T13:18:58.208Z,7.72
2022-12-25T13:21:29.875Z,6.80
2022-12-25T13:24:02.739Z,9.82
2022-12-25T13:26:33.286Z,9.02
2022-12-25T13:29:11.354Z,13.25
2022-12-25T13:31:42.346Z,10.20
2022-12-25T13:34:21.392Z,13.43
2022-12-25T13:36:51.660Z,7.35
2022-12-25T13:39:25.200Z,10.75
2022-12-25T13:42:09.768Z,11.40
2022-12-25T13:44:40.158Z,7.07
2022-12-25T13:47:31.378Z,8.57
2022-12-25T13:50:17.257Z,7.15
2022-12-25T13:52:47.586Z,8.13
2022-12-25T13:55:24.702Z,8.13
2022-12-25T14:00:39.572Z,6.05
2022-12-25T14:03:19.726Z,7.70
2022-12-25T14:06:00.855Z,7.57
2022-12-25T14:08:34.001Z,7.65
2022-12-25T14:11:06.395Z,8.75
2022-12-25T14:13:41.045Z,7.47
2022-12-25T14:16:12.726Z,7.00
2022-12-25T14:18:56.124Z,8.95
2022-12-25T14:21:35.196Z,10.00
2022-12-25T14:24:13.722Z,8.65
2022-12-25T14:26:44.540Z,8.68
2022-12-25T14:29:23.659Z,10.35
2022-12-25T14:31:59.012Z,8.90
2022-12-25T14:34:30.689Z,8.23
2022-12-25T14:37:03.618Z,9.85
2022-12-25T14:39:38.583Z,8.80
2022-12-25T14:42:20.139Z,8.70
2022-12-25T14:45:03.512Z,8.85
2022-12-25T14:47:50.091Z,7.72
2022-12-25T14:50:37.480Z,9.73
2022-12-25T14:53:19.885Z,9.65
2022-12-25T14:55:53.437Z,10.35
2022-12-25T14:58:28.044Z,9.45
2022-12-25T15:01:04.689Z,9.32
2022-12-25T15:03:38.070Z,8.63
2022-12-25T15:06:20.073Z,9.82
2022-12-25T15:08:59.031Z,10.43
2022-12-25T15:11:30.144Z,10.18
2022-12-25T15:14:00.830Z,12.00
2022-12-25T15:16:42.467Z,10.30
2022-12-25T15:19:23.492Z,10.40
2022-12-25T15:21:57.207Z,11.95
2022-12-25T15:24:27.324Z,16.08
2022-12-25T15:27:00.465Z,10.77
2022-12-25T15:30:09.260Z,9.93
2022-12-25T15:32:24.700Z,16.55
2022-12-25T15:34:54.824Z,10.90
2022-12-25T15:37:24.975Z,10.60
2022-12-25T15:39:57.425Z,12.10
2022-12-25T15:42:27.742Z,11.15
2022-12-25T15:44:58.137Z,9.20
2022-12-25T15:47:28.291Z,10.85
2022-12-25T15:49:58.515Z,9.68
2022-12-25T15:52:28.604Z,11.52
2022-12-25T15:54:58.743Z,9.82
2022-12-25T15:57:28.928Z,9.50
2022-12-25T15:59:59.686Z,12.35
2022-12-25T16:02:30.417Z,12.07
2022-12-25T16:05:05.440Z,15.35
2022-12-25T16:07:39.415Z,10.93
2022-12-25T16:10:18.767Z,10.68
2022-12-25T16:12:48.951Z,10.55
2022-12-25T16:15:19.181Z,9.15
2022-12-25T16:17:49.271Z,10.88
2022-12-25T16:20:19.485Z,11.82
2022-12-25T16:22:49.834Z,13.98
2022-12-25T16:25:20.475Z,10.38
2022-12-25T16:27:50.686Z,9.63
2022-12-25T16:30:21.071Z,10.93
2022-12-25T16:32:51.933Z,11.75
2022-12-25T16:35:22.127Z,16.00
2022-12-25T16:37:52.318Z,14.00
2022-12-25T16:40:22.654Z,11.98
2022-12-25T16:42:53.000Z,11.88
2022-12-25T16:45:23.402Z,16.10
2022-12-25T16:47:53.589Z,10.90
2022-12-25T16:50:23.961Z,15.60
2022-12-25T16:52:54.227Z,10.88
2022-12-25T16:55:29.654Z,13.88
2022-12-25T16:58:01.021Z,11.90
2022-12-25T17:00:31.222Z,12.60
2022-12-25T17:03:01.895Z,16.73
2022-12-25T17:05:33.614Z,11.35
2022-12-25T17:08:03.961Z,10.73
2022-12-25T17:10:34.153Z,13.00
2022-12-25T17:13:04.276Z,13.23
2022-12-25T17:15:34.445Z,12.93
2022-12-25T17:18:04.562Z,10.00
2022-12-25T17:20:36.233Z,12.10
2022-12-25T17:23:06.344Z,14.23
2022-12-25T17:25:36.973Z,10.35
2022-12-25T17:28:07.076Z,10.32
2022-12-25T17:30:37.216Z,9.07
2022-12-25T17:33:07.310Z,11.90
2022-12-25T17:35:37.715Z,10.68
2022-12-25T17:38:07.869Z,13.93
2022-12-25T17:40:37.999Z,9.60
2022-12-25T17:43:08.097Z,11.10
2022-12-25T17:45:38.214Z,10.75
2022-12-25T17:48:08.351Z,8.80
2022-12-25T17:50:41.456Z,9.95
2022-12-25T17:53:12.065Z,10.00
2022-12-25T17:55:42.418Z,10.43
2022-12-25T17:58:12.607Z,10.32
2022-12-25T18:00:42.724Z,10.20
2022-12-25T18:03:12.998Z,12.20
2022-12-25T18:05:43.391Z,9.90
2022-12-25T18:08:14.163Z,11.23
2022-12-25T18:10:44.726Z,9.98
2022-12-25T18:13:14.866Z,10.80
2022-12-25T18:15:44.988Z,10.68
2022-12-25T18:18:15.507Z,10.30
2022-12-25T18:20:45.693Z,9.05
2022-12-25T18:23:15.897Z,13.70
2022-12-25T18:25:46.090Z,10.82
2022-12-25T18:28:17.004Z,10.48
2022-12-25T18:30:47.792Z,9.70
2022-12-25T18:33:18.015Z,10.57
2022-12-25T18:35:48.236Z,12.88
2022-12-25T18:38:18.446Z,11.10
2022-12-25T18:40:48.780Z,12.18
2022-12-25T18:43:19.187Z,10.52
2022-12-25T18:46:00.499Z,10.30
2022-12-25T18:48:32.166Z,11.40
2022-12-25T18:51:05.912Z,11.27
2022-12-25T18:53:36.478Z,9.50
2022-12-25T18:56:10.091Z,11.10
2022-12-25T18:58:40.488Z,10.93
2022-12-25T19:01:14.670Z,12.02
2022-12-25T19:03:45.800Z,12.20
2022-12-25T19:06:26.796Z,10.90
2022-12-25T19:08:57.972Z,11.93
2022-12-25T19:11:28.297Z,11.65
2022-12-25T19:13:58.453Z,10.50
2022-12-25T19:16:28.733Z,12.05
2022-12-25T19:18:58.961Z,10.07
2022-12-25T19:21:29.248Z,10.00
2022-12-25T19:23:59.363Z,14.23
2022-12-25T19:26:29.493Z,14.68
2022-12-25T19:28:59.659Z,14.63
2022-12-25T19:31:29.851Z,10.45
2022-12-25T19:34:00.152Z,11.38
2022-12-25T19:36:30.600Z,13.82
2022-12-25T19:39:01.219Z,11.98
2022-12-25T19:41:31.971Z,18.25
2022-12-25T19:44:02.201Z,18.15
2022-12-25T19:46:35.099Z,12.98
2022-12-25T19:49:05.370Z,11.35
2022-12-25T19:51:41.167Z,14.38
2022-12-25T19:54:16.668Z,14.02
2022-12-25T19:56:47.860Z,11.90
2022-12-25T19:59:18.157Z,12.88
2022-12-25T20:01:48.526Z,11.55
2022-12-25T20:04:18.976Z,10.27
2022-12-25T20:06:49.137Z,12.10
2022-12-25T20:09:21.487Z,16.80
2022-12-25T20:11:52.092Z,14.55
2022-12-25T20:14:22.344Z,14.25
2022-12-25T20:16:52.460Z,13.02
2022-12-25T20:19:22.589Z,11.95
2022-12-25T20:21:54.340Z,13.02
2022-12-25T20:24:25.545Z,12.90
2022-12-25T20:26:59.252Z,12.02
2022-12-25T20:29:29.783Z,13.23
2022-12-25T20:31:59.995Z,11.88
2022-12-25T20:34:30.248Z,11.35
2022-12-25T20:37:00.396Z,11.02
2022-12-25T20:39:30.524Z,9.88
2022-12-25T20:42:00.614Z,13.15
2022-12-25T20:44:30.758Z,11.27
2022-12-25T20:47:01.320Z,18.58
2022-12-25T20:49:32.872Z,16.05
2022-12-25T20:52:05.684Z,14.20
2022-12-25T20:54:36.240Z,16.73
2022-12-25T20:57:06.499Z,13.35
2022-12-25T20:59:37.891Z,13.45
2022-12-25T21:02:10.455Z,14.05
2022-12-25T21:05:00.522Z,12.63
2022-12-25T21:07:30.961Z,12.73
2022-12-25T21:10:01.143Z,9.70
2022-12-25T21:12:31.241Z,10.73
2022-12-25T21:15:02.175Z,12.05
2022-12-25T21:17:32.338Z,10.63
2022-12-25T21:20:02.518Z,15.30
2022-12-25T21:22:33.376Z,13.77
2022-12-25T21:25:03.928Z,14.30
2022-12-25T21:27:33.988Z,12.52
2022-12-25T21:30:14.239Z,15.40
2022-12-25T21:33:04.503Z,10.65
2022-12-25T21:35:37.619Z,14.77
2022-12-25T21:38:07.906Z,12.55
2022-12-25T21:40:38.593Z,10.50
2022-12-25T21:43:12.104Z,13.25
2022-12-25T21:45:42.324Z,14.85
2022-12-25T21:48:13.482Z,12.95
2022-12-25T21:51:18.772Z,9.70
2022-12-25T21:53:49.359Z,9.77
2022-12-25T21:56:19.570Z,10.45
2022-12-25T21:58:49.710Z,10.32
2022-12-25T22:01:19.893Z,11.45
2022-12-25T22:03:50.185Z,10.63
2022-12-25T22:06:38.808Z,10.07
2022-12-25T22:09:09.372Z,12.95
2022-12-25T22:11:58.366Z,10.07
2022-12-25T22:14:51.404Z,20.23
2022-12-25T22:17:57.236Z,9.60
2022-12-25T22:20:38.711Z,11.07
2022-12-25T22:23:08.771Z,10.60
2022-12-25T22:25:38.941Z,9.00
2022-12-25T22:28:09.436Z,12.23
2022-12-25T22:30:44.515Z,11.48
2022-12-25T22:33:14.829Z,12.85
2022-12-25T22:35:44.971Z,15.95
2022-12-25T22:38:15.118Z,11.77
2022-12-25T22:40:45.287Z,10.77
2022-12-25T22:43:15.411Z,11.40
2022-12-25T22:45:45.581Z,12.32
2022-12-25T22:48:15.736Z,10.23
2022-12-25T22:50:45.881Z,10.95
2022-12-25T22:53:16.090Z,10.93
2022-12-25T22:55:49.597Z,11.95
2022-12-25T22:58:19.735Z,9.82
2022-12-25T23:00:49.870Z,11.15
2022-12-25T23:03:20.168Z,11.18
2022-12-25T23:05:54.961Z,10.15
2022-12-25T23:08:25.389Z,13.43
2022-12-25T23:10:55.519Z,9.68
2022-12-25T23:13:44.270Z,11.57
2022-12-25T23:16:15.720Z,12.68
2022-12-25T23:19:04.404Z,11.15
2022-12-25T23:21:53.545Z,10.55
2022-12-25T23:24:42.165Z,14.52
2022-12-25T23:27:12.525Z,13.27
2022-12-25T23:29:42.643Z,13.50
2022-12-25T23:32:30.487Z,10.48
2022-12-25T23:35:00.623Z,10.07
2022-12-25T23:37:31.115Z,10.27
2022-12-25T23:40:01.487Z,10.35
2022-12-25T23:42:31.720Z,8.75
2022-12-25T23:45:01.885Z,10.68
2022-12-25T23:47:32.088Z,10.95
2022-12-25T23:50:02.311Z,8.40
2022-12-25T23:52:32.467Z,13.07
2022-12-25T23:55:02.543Z,7.93
2022-12-25T23:57:32.731Z,10.07
